createdAt,value
2019-03-24T00:04:51.459Z,68.50
2019-03-24T00:10:00.347Z,67.00
2019-03-24T00:15:08.707Z,66.62
2019-03-24T00:20:18.577Z,68.44
2019-03-24T00:25:22.957Z,67.00
2019-03-24T00:30:31.789Z,63.75
2019-03-24T00:35:36.152Z,67.50
2019-03-24T00:40:44.972Z,70.25
2019-03-24T00:45:52.922Z,76.20
2019-03-24T00:51:01.820Z,76.00
2019-03-24T00:56:06.314Z,70.50
2019-03-24T01:01:15.713Z,71.00
2019-03-24T01:06:22.746Z,71.33
2019-03-24T01:11:27.229Z,74.50
2019-03-24T01:16:35.129Z,76.89
2019-03-24T01:21:43.336Z,85.33
2019-03-24T01:26:52.363Z,80.50
2019-03-24T01:31:57.232Z,79.50
2019-03-24T01:37:04.763Z,77.78
2019-03-24T01:42:11.015Z,75.25
2019-03-24T01:47:18.600Z,76.89
2019-03-24T01:52:28.511Z,79.62
2019-03-24T01:57:31.568Z,83.00
2019-03-24T02:02:34.867Z,85.00
2019-03-24T02:07:45.601Z,82.78
2019-03-24T02:12:55.306Z,80.89
2019-03-24T02:18:03.469Z,90.33
2019-03-24T02:23:14.102Z,97.10
2019-03-24T02:28:21.385Z,97.44
2019-03-24T02:33:32.030Z,98.33
2019-03-24T02:38:41.767Z,87.50
2019-03-24T02:43:53.056Z,102.80
2019-03-24T02:49:02.904Z,95.78
2019-03-24T02:54:06.640Z,111.00
2019-03-24T02:59:12.195Z,96.14
2019-03-24T03:04:20.735Z,106.80
2019-03-24T03:09:25.996Z,101.29
2019-03-24T03:14:36.329Z,102.50
2019-03-24T03:19:40.049Z,104.40
2019-03-24T03:24:52.243Z,121.73
2019-03-24T03:29:55.462Z,108.50
2019-03-24T03:35:08.126Z,120.27
2019-03-24T03:40:14.506Z,119.00
2019-03-24T03:45:26.162Z,121.00
2019-03-24T03:50:38.719Z,107.30
2019-03-24T03:55:44.303Z,103.29
2019-03-24T04:00:47.969Z,107.00
2019-03-24T04:05:59.324Z,101.36
2019-03-24T04:11:04.761Z,93.50
2019-03-24T04:16:08.661Z,93.00
2019-03-24T04:21:19.262Z,88.33
2019-03-24T04:26:28.623Z,79.00
2019-03-24T04:31:37.316Z,86.33
2019-03-24T04:36:46.037Z,80.75
2019-03-24T04:41:55.729Z,82.67
2019-03-24T04:47:05.517Z,83.00
2019-03-24T04:52:13.479Z,75.78
2019-03-24T04:57:18.942Z,83.50
2019-03-24T05:02:27.082Z,78.89
2019-03-24T05:07:34.546Z,77.22
2019-03-24T05:12:38.895Z,74.00
2019-03-24T05:17:46.930Z,74.67
2019-03-24T05:22:53.984Z,57.78
2019-03-24T05:28:01.743Z,51.37
2019-03-24T05:33:06.977Z,52.50
2019-03-24T05:38:12.844Z,45.63
2019-03-24T05:43:17.875Z,55.50
2019-03-24T05:48:24.027Z,45.50
2019-03-24T05:53:28.446Z,50.50
2019-03-24T05:58:34.599Z,56.25
2019-03-24T06:03:38.127Z,50.25
2019-03-24T06:08:44.273Z,39.38
2019-03-24T06:13:51.943Z,45.00
2019-03-24T06:18:56.794Z,47.00
2019-03-24T06:24:00.282Z,51.67
2019-03-24T06:29:07.756Z,48.14
2019-03-24T06:34:15.146Z,44.38
2019-03-24T06:39:20.004Z,48.50
2019-03-24T06:44:24.158Z,42.50
2019-03-24T06:49:32.451Z,45.12
2019-03-24T06:54:36.619Z,45.33
2019-03-24T06:59:43.104Z,41.67
2019-03-24T07:04:47.811Z,40.00
2019-03-24T07:09:51.608Z,38.50
2019-03-24T07:14:59.915Z,39.25
2019-03-24T07:20:04.942Z,39.29
2019-03-24T07:25:12.315Z,41.13
2019-03-24T07:30:20.416Z,41.00
2019-03-24T07:35:25.173Z,45.00
2019-03-24T07:40:33.479Z,38.88
2019-03-24T07:45:41.342Z,39.38
2019-03-24T07:50:50.637Z,39.13
2019-03-24T07:55:55.803Z,41.00
2019-03-24T08:00:59.110Z,37.33
2019-03-24T08:06:03.389Z,46.00
2019-03-24T08:11:10.725Z,41.63
2019-03-24T08:16:14.723Z,41.75
2019-03-24T08:21:23.155Z,42.25
2019-03-24T08:26:27.971Z,42.50
2019-03-24T08:31:36.202Z,42.25
2019-03-24T08:36:42.042Z,40.00
2019-03-24T08:41:46.375Z,36.00
2019-03-24T08:46:53.123Z,38.89
2019-03-24T08:51:59.934Z,37.38
2019-03-24T08:57:04.940Z,40.25
2019-03-24T09:02:12.580Z,44.43
2019-03-24T09:07:19.906Z,32.00
2019-03-24T09:12:28.272Z,38.86
2019-03-24T09:17:35.821Z,35.75
2019-03-24T09:22:40.658Z,39.50
2019-03-24T09:27:44.185Z,31.67
2019-03-24T09:32:50.259Z,24.14
2019-03-24T09:37:54.671Z,35.33
2019-03-24T09:43:03.905Z,29.37
2019-03-24T09:48:08.444Z,29.00
2019-03-24T09:53:13.182Z,34.25
2019-03-24T09:58:17.717Z,35.75
2019-03-24T10:03:22.226Z,37.25
2019-03-24T10:08:30.806Z,35.00
2019-03-24T10:13:38.581Z,33.75
2019-03-24T10:18:48.014Z,33.50
2019-03-24T10:23:52.898Z,32.50
2019-03-24T10:28:59.687Z,35.22
2019-03-24T10:34:03.946Z,37.50
2019-03-24T10:39:07.464Z,38.33
2019-03-24T10:44:11.037Z,32.00
2019-03-24T10:49:24.844Z,33.75
2019-03-24T10:54:28.386Z,33.13
2019-03-24T10:59:34.426Z,27.62
2019-03-24T11:04:42.815Z,33.75
2019-03-24T11:09:48.869Z,31.87
2019-03-24T11:14:59.067Z,30.37
2019-03-24T11:20:08.415Z,32.50
2019-03-24T11:25:13.593Z,36.00
2019-03-24T11:30:19.483Z,38.88
2019-03-24T11:35:28.796Z,31.25
2019-03-24T11:40:37.462Z,34.38
2019-03-24T11:45:41.909Z,29.20
2019-03-24T11:50:45.514Z,28.67
2019-03-24T11:55:49.782Z,30.75
2019-03-24T12:00:55.086Z,33.25
2019-03-24T12:06:14.023Z,30.62
2019-03-24T12:11:13.514Z,28.00
2019-03-24T12:16:19.817Z,27.62
2019-03-24T12:21:26.699Z,29.50
2019-03-24T12:26:30.247Z,30.50
2019-03-24T12:31:34.932Z,28.00
2019-03-24T12:36:43.706Z,31.25
2019-03-24T12:41:49.099Z,32.50
2019-03-24T12:46:57.946Z,28.00
2019-03-24T12:52:04.260Z,31.25
2019-03-24T12:57:07.875Z,32.75
2019-03-24T13:02:12.259Z,25.50
2019-03-24T13:07:15.967Z,29.00
2019-03-24T13:12:22.118Z,29.75
2019-03-24T13:17:25.817Z,30.00
2019-03-24T13:22:30.251Z,30.50
2019-03-24T13:27:33.828Z,27.00
2019-03-24T13:32:42.351Z,36.88
2019-03-24T13:37:48.383Z,33.13
2019-03-24T13:42:52.724Z,26.00
2019-03-24T13:47:55.993Z,27.00
2019-03-24T13:52:59.958Z,28.25
2019-03-24T13:58:04.035Z,30.25
2019-03-24T14:03:09.947Z,29.12
2019-03-24T14:08:16.690Z,26.62
2019-03-24T14:13:21.759Z,29.25
2019-03-24T14:18:32.719Z,31.67
2019-03-24T14:23:36.835Z,24.67
2019-03-24T14:28:41.003Z,24.00
2019-03-24T14:33:50.134Z,30.00
2019-03-24T14:38:54.287Z,30.33
2019-03-24T14:43:57.748Z,27.33
2019-03-24T14:49:06.279Z,33.25
2019-03-24T14:54:13.745Z,28.86
2019-03-24T14:59:18.604Z,28.50
2019-03-24T15:04:21.959Z,28.33
2019-03-24T15:09:27.838Z,26.25
2019-03-24T15:14:33.455Z,35.50
2019-03-24T15:19:39.749Z,35.13
2019-03-24T15:24:46.930Z,28.62
2019-03-24T15:29:53.255Z,33.86
2019-03-24T15:34:57.108Z,32.00
2019-03-24T15:40:01.934Z,41.40
2019-03-24T15:45:13.170Z,41.14
2019-03-24T15:50:16.567Z,48.33
2019-03-24T15:55:20.814Z,35.20
2019-03-24T16:00:41.944Z,39.00
2019-03-24T16:05:51.498Z,44.83
2019-03-24T16:10:58.255Z,24.86
2019-03-24T16:16:06.590Z,45.64
2019-03-24T16:21:12.083Z,40.20
2019-03-24T16:26:20.078Z,30.50
2019-03-24T16:31:24.489Z,36.50
2019-03-24T16:36:28.080Z,23.25
2019-03-24T16:41:34.308Z,37.38
2019-03-24T16:46:41.126Z,27.25
2019-03-24T16:51:44.488Z,29.00
2019-03-24T16:56:50.405Z,30.29
2019-03-24T17:01:57.449Z,30.62
2019-03-24T17:07:03.995Z,32.63
2019-03-24T17:12:08.890Z,33.50
2019-03-24T17:17:14.522Z,31.00
2019-03-24T17:22:22.655Z,35.00
2019-03-24T17:27:31.271Z,34.50
2019-03-24T17:32:38.990Z,41.00
2019-03-24T17:37:45.904Z,33.75
2019-03-24T17:42:49.373Z,56.00
2019-03-24T17:47:53.363Z,38.20
2019-03-24T17:52:57.395Z,46.00
2019-03-24T17:58:02.607Z,39.50
2019-03-24T18:03:14.622Z,43.09
2019-03-24T18:08:18.631Z,59.00
2019-03-24T18:13:23.995Z,53.14
2019-03-24T18:18:31.767Z,52.38
2019-03-24T18:23:41.355Z,58.20
2019-03-24T18:28:49.214Z,55.50
2019-03-24T18:33:57.839Z,52.75
2019-03-24T18:39:07.322Z,57.70
2019-03-24T18:44:12.195Z,51.33
2019-03-24T18:49:19.212Z,46.80
2019-03-24T18:54:28.496Z,49.73
2019-03-24T18:59:35.447Z,56.37
2019-03-24T19:04:39.707Z,50.00
2019-03-24T19:09:51.351Z,65.89
2019-03-24T19:14:57.360Z,53.75
2019-03-24T19:20:05.404Z,60.63
2019-03-24T19:25:11.220Z,56.86
2019-03-24T19:30:19.646Z,57.38
2019-03-24T19:35:23.710Z,55.00
2019-03-24T19:40:32.992Z,52.00
2019-03-24T19:45:40.135Z,61.37
2019-03-24T19:50:44.200Z,58.60
2019-03-24T19:55:52.662Z,64.75
2019-03-24T20:01:01.094Z,65.62
2019-03-24T20:06:07.244Z,60.88
2019-03-24T20:11:12.484Z,69.71
2019-03-24T20:16:17.594Z,62.00
2019-03-24T20:21:32.229Z,70.07
2019-03-24T20:26:38.085Z,73.86
2019-03-24T20:31:48.357Z,71.60
2019-03-24T20:36:54.022Z,74.71
2019-03-24T20:41:58.691Z,70.00
2019-03-24T20:47:08.477Z,68.55
2019-03-24T20:52:19.444Z,75.00
2019-03-24T20:57:25.351Z,67.43
2019-03-24T21:02:32.116Z,69.00
2019-03-24T21:07:40.412Z,67.43
2019-03-24T21:12:45.299Z,61.50
2019-03-24T21:17:49.149Z,66.00
2019-03-24T21:22:57.935Z,66.37
2019-03-24T21:28:04.411Z,67.37
2019-03-24T21:33:08.394Z,66.00
2019-03-24T21:38:14.704Z,65.37
2019-03-24T21:45:28.575Z,52.30
2019-03-24T22:09:49.264Z,21.00
2019-03-24T22:14:55.140Z,17.00
2019-03-24T22:20:00.350Z,12.00
2019-03-24T22:25:07.031Z,13.86
2019-03-24T22:30:13.962Z,12.57
2019-03-24T22:35:17.785Z,12.83
2019-03-24T22:40:23.430Z,10.83
2019-03-24T22:45:29.829Z,14.00
2019-03-24T22:50:34.656Z,13.57
2019-03-24T22:55:41.248Z,15.57
2019-03-24T23:00:45.324Z,11.40
2019-03-24T23:05:52.796Z,15.00
2019-03-24T23:10:57.572Z,10.29
2019-03-24T23:16:04.079Z,17.00
2019-03-24T23:21:12.407Z,11.14
2019-03-24T23:26:19.037Z,16.00
2019-03-24T23:31:24.835Z,14.43
2019-03-24T23:36:31.413Z,16.00
2019-03-24T23:41:37.973Z,14.14
2019-03-24T23:46:42.755Z,13.00
2019-03-24T23:51:50.941Z,23.38
2019-03-24T23:56:57.398Z,18.87
